Relevés horaires Laegern (Suisse)


Relevés horaires à Laegern - Samedi 12 Juin 2021
Heure UTC1 Température [°C] Vent [km/h] Hum. [%] Pres.4 [hPa] Visi. [Km] Nébu. [octa] Préc.5 [mm] Cond.
2m. Res. Ros. Dir.2 Vit. Moy. Raf.3
23:00 16.6 16.6 11.6 N 0.0 -- 24.1 72 850(1.1/3h) -- -- -- --
22:00 17.5 17.5 11.6 NNO 0.0 -- 18.5 68 850(1.6/3h) -- -- -- --
21:00 18.1 18.1 11.5 NNO 0.0 -- 33.3 65 850(1.6/3h) -- -- -- --
20:00 18.8 18.8 11.5 NO 0.0 -- 24.1 63 850(1.2/3h) -- -- -- --
19:00 19.6 19.6 12.0 NO 0.0 -- 33.3 61 850(0.8/3h) -- -- -- --
18:00 20.0 20.0 11.5 NO 0.0 -- 38.9 58 850(0.5/3h) -- -- -- --
17:00 20.4 20.4 10.3 ONO 0.0 -- 38.9 52 850(0.3/3h) -- -- -- --
16:00 21.0 21.0 11.2 ONO 0.0 -- 35.2 53 850(-0.1/3h) -- -- -- --
15:00 22.2 22.2 12.2 O 0.0 -- 29.6 53 850(-0.1/3h) -- -- -- --
14:00 23.0 23.0 11.8 O 0.0 -- 25.9 49 850(-0.3/3h) -- -- -- --
13:00 22.0 22.0 11.6 ONO 0.0 -- 25.9 52 850(-0.2/3h) -- -- -- --
12:00 22.1 22.1 11.2 O 0.0 -- 25.9 50 850(-0.1/3h) -- -- -- --
11:00 22.0 22.0 12.7 SO 0.0 -- 25.9 56 850(0.3/3h) -- -- -- --
10:00 20.3 20.3 12.7 SSO 0.0 -- 22.2 62 850(0.4/3h) -- -- -- --
09:00 19.9 19.9 13.0 SSO 0.0 -- 18.5 64 850(0.7/3h) -- -- -- --
08:00 18.3 18.3 12.3 SSO 0.0 -- 18.5 68 850(0.9/3h) -- -- -- --
07:00 16.7 16.7 10.8 SSO 0.0 -- 18.5 68 850(1.0/3h) -- -- -- --
06:00 16.2 16.2 10.2 SSO 0.0 -- 20.4 68 850(0.6/3h) -- -- -- --
05:00 16.8 16.8 11.3 SSO 0.0 -- 13.0 70 850(0.2/3h) -- -- -- --
04:00 17.9 17.9 10.7 S 0.0 -- 11.1 63 850(-0.1/3h) -- -- -- --
03:00 18.7 18.7 8.1 ESE 0.0 -- 9.3 50 850(-0.4/3h) -- -- -- --
02:00 18.3 18.3 10.1 E 0.0 -- 7.4 59 850(-0.5/3h) -- -- -- --
01:00 19.0 19.0 10.4 E 0.0 -- 9.3 57 850(-0.3/3h) -- -- -- --
00:00 19.6 19.6 9.5 NE 0.0 -- 18.5 52 850(0.1/3h) -- -- -- --

1 Coordinated Universal Time. Actuellement il est 22:00 locale et 20:00 UTC.

2 Le vent souffle depuis la direction indiquée vers la direction oposée.

3 Les rafales max. sont disponible 40 min après l'heure du relevé.

4 Pour les stations d'altitude (plus de 600m) le géopotentiel du niveau le plus proche de la pression obligatoire est indiqué.

5 Les stations disposant d'un diffuseur peuvent indiquer "trace". Cela signifie que des précipitations ont touchés le sol mais que la quantité est inférieure à 0.1 mm.

Copyright

Les données affichées sur cette page sont la propriété exclusive de Météo Suisse.

Récapitulatif de la journée
Température [°C] Vent [km/h] Ensoleillement4 [h] Precipitations totale5 [mm] Pression [Hpa]
Min1 Max.2 Moy.3 Max. Min Max.
15.9 23.0 0 38.9 12 h 6 min 0 850.0 850.0

1 Température minimale relevée entre 18:00 UTC la veille et 18:00 UTC le jour donné.

2 Température maximale relevée entre 06:00 UTC le jour donné et 06:00 UTC le lendemain.

3 Vent moyen de la journée basé sur les relevés horaires.

4 Ensoleillement en heures relevé entre 06:00 UTC la veille et 06:00 UTC le jour donné.

5 Précipitations totales tombées entre 06:00 UTC la jour donné et 06:00 UTC le lendemain.

Graphiques horaires